• Join FlightAware (Why Join?)
  • Login
  • US Flag 
02:13AM EDT


 

Airport Tracker/Info


-or-


 

Live Flight TrackerFlight Track Log ✈ LBQ792 ✈ 10-May-2013 ✈ KIAG - KAGC

Flight Track Log - Related Links

Times and Time Zones

All times are in EDT time to prevent confusion due to time zone crossing. See the LBQ792 flight status page for this flight to view local times or setup timezone preferences in your user account.

Time Position Orientation Groundspeed Altitude Reporting Facility
EDT Latitude Longitude Course Direction KTS MPH feet Rate Location/Type
11:23PM 43.0667 -78.9500 180° South 137 158 2,400  Level Buffalo TRACON
11:24PM 43.0333 -78.9667 200° South 145 167 3,800 1,260 Climbing Buffalo TRACON
11:25PM 42.9783 -78.9769 188° South 161 185 5,100 1,200 Climbing Cleveland Center
11:26PM 42.9306 -78.9811 184° South 166 191 6,400 1,200 Climbing Cleveland Center
11:27PM 42.8889 -78.9908 190° South 171 197 7,500 1,080 Climbing Cleveland Center
11:28PM 42.8369 -78.9947 183° South 185 213 8,600 1,200 Climbing Cleveland Center
11:29PM 42.7808 -79.0075 189° South 185 213 9,900 1,080 Climbing Cleveland Center
11:30PM 42.7350 -79.0117 184° South 180 207 10,800 900 Climbing Cleveland Center
11:31PM 42.6853 -79.0211 188° South 180 207 11,800 900 Climbing Cleveland Center
11:32PM 42.6289 -79.0283 185° South 191 220 12,700 840 Climbing Cleveland Center
11:33PM 42.5728 -79.0381 187° South 199 229 13,500 900 Climbing Cleveland Center
11:34PM 42.5208 -79.0478 188° South 199 229 14,500 900 Climbing Cleveland Center
11:35PM 42.4647 -79.0547 185° South 199 229 15,400 720 Climbing Cleveland Center
11:36PM 42.4067 -79.0703 191° South 204 235 16,000 660 Climbing Cleveland Center
11:37PM 42.3506 -79.0828 189° South 204 235 16,800 720 Climbing Cleveland Center
11:38PM 42.2964 -79.1011 194° South 209 241 17,500 600 Climbing Cleveland Center
11:39PM 42.2403 -79.1136 189° South 204 235 18,000 600 Climbing Cleveland Center
11:40PM 42.1822 -79.1289 191° South 204 235 18,700 600 Climbing Cleveland Center
11:41PM 42.1281 -79.1442 192° South 204 235 19,200 420 Climbing Cleveland Center
11:42PM 42.0742 -79.1650 196° South 204 235 19,600 360 Climbing Cleveland Center
11:43PM 42.0181 -79.1831 193° South 204 235 20,000 180 Climbing Cleveland Center
11:44PM 41.9600 -79.2008 193° South 204 235 20,000  Level Cleveland Center
11:45PM 41.9039 -79.2217 195° South 204 235 20,000  Level Cleveland Center
11:46PM 41.8417 -79.2397 192° South 217 250 20,000  Level Cleveland Center
11:47PM 41.7836 -79.2633 197° South 222 255 20,000  Level Cleveland Center
11:48PM 41.7089 -79.2869 193° South 244 281 20,000  Level Cleveland Center
11:49PM 41.6464 -79.3106 196° South 244 281 20,000  Level Cleveland Center
11:50PM 41.5800 -79.3367 196° South 244 281 20,000  Level Cleveland Center
11:51PM 41.5158 -79.3631 197° South 244 281 20,000  Level Cleveland Center
11:52PM 41.4494 -79.3919 198° South 244 281 20,000  Level Cleveland Center
11:53PM 41.3828 -79.4153 195° South 244 281 20,000  Level Cleveland Center
11:54PM 41.3164 -79.4414 196° South 244 281 20,000 -600 Level Cleveland Center
11:55PM 41.2500 -79.4675 196° South 244 281 18,900 -1,200 Descending Cleveland Center
11:56PM 41.1814 -79.4933 196° South 244 281 17,700 -1,260 Descending Cleveland Center
11:57PM 41.1108 -79.5222 197° South 249 287 16,400 -1,380 Descending Cleveland Center
11:58PM 41.0381 -79.5425 192° South 255 293 15,000 -1,440 Descending Cleveland Center
11:59PM 40.9672 -79.5628 192° South 267 307 13,600 -1,440 Descending Cleveland Center
12:00AM 40.8903 -79.5778 188° South 272 313 12,200 -1,440 Descending Cleveland Center
12:01AM 40.8156 -79.5928 189° South 277 319 10,800 -1,500 Descending Cleveland Center
12:02AM 40.7406 -79.6075 188° South 277 319 9,300 -1,440 Descending Cleveland Center
12:03AM 40.6678 -79.6222 189° South 277 319 8,000 -1,440 Descending Cleveland Center
12:04AM 40.5969 -79.6369 189° South 277 319 6,500 -1,500 Descending Cleveland Center
12:05AM 40.5261 -79.6517 189° South 277 319 5,100 -1,440 Descending Cleveland Center
12:07AM 40.4795 -79.7275 197° South  Level Estimated
12:14AM 40.3500 -79.9167 270° West  Level FlightAware Approximate
12:15AM 40.3544 -79.9302 270° West  Level Estimated
12:16AM 40.3544 -79.9302 270° West  Level Estimated
12:17AM 40.3544 -79.9302 270° West  Level Estimated
12:18AM 40.3544 -79.9302 270° West  Level Estimated
12:19AM 40.3544 -79.9302 270° West  Level Estimated
12:20AM 40.3544 -79.9302 270° West  Level Estimated